createdAt,value
2023-03-31T00:12:25.831Z,15.57
2023-03-31T00:42:25.451Z,19.86
2023-03-31T01:12:25.601Z,14.82
2023-03-31T01:42:25.951Z,15.08
2023-03-31T02:12:25.722Z,13.84
2023-03-31T02:27:25.719Z,14.21
2023-03-31T02:57:26.199Z,13.27
2023-03-31T03:27:25.309Z,14.73
2023-03-31T03:57:25.462Z,18.92
2023-03-31T04:12:25.833Z,22.88
2023-03-31T05:42:25.472Z,27
2023-03-31T05:57:25.745Z,17.23
2023-03-31T06:12:25.619Z,19.63
2023-03-31T06:27:25.630Z,14.58
2023-03-31T06:42:25.557Z,14.66
2023-03-31T06:57:25.976Z,11.53
2023-03-31T07:12:25.764Z,12.34
2023-03-31T07:27:26.485Z,14.38
2023-03-31T07:42:26.049Z,33.88
2023-03-31T07:57:25.793Z,17.58
2023-03-31T08:12:26.047Z,24.41
2023-03-31T08:27:25.753Z,27.16
2023-03-31T08:42:25.846Z,18.31
2023-03-31T08:57:25.865Z,10.6
2023-03-31T09:12:25.577Z,9.14
2023-03-31T09:42:25.664Z,16.49
2023-03-31T09:57:25.803Z,13.92
2023-03-31T10:12:25.913Z,4.69
2023-03-31T10:27:25.695Z,7.93
2023-03-31T10:42:25.990Z,3.01
2023-03-31T11:12:25.747Z,5.15
2023-03-31T11:27:25.390Z,4.76
2023-03-31T11:57:25.774Z,7.02
2023-03-31T12:12:25.327Z,2.17
2023-03-31T12:27:25.461Z,3.79
2023-03-31T12:42:26.065Z,3.99
2023-03-31T12:57:25.590Z,3.6
2023-03-31T13:12:25.964Z,4.55
2023-03-31T13:27:25.410Z,3.72
2023-03-31T13:42:25.840Z,18.59
2023-03-31T13:57:25.878Z,6.98
2023-03-31T14:12:25.870Z,5.1
2023-03-31T14:27:25.178Z,2.64
2023-03-31T14:42:25.813Z,2.22
2023-03-31T14:57:25.218Z,0.95
2023-03-31T15:12:25.585Z,1.38
2023-03-31T15:42:25.406Z,1.26
2023-03-31T15:57:26.019Z,0.06
2023-03-31T16:12:25.587Z,0.68
2023-03-31T16:27:25.703Z,3.96
2023-03-31T16:42:25.489Z,6.51
2023-03-31T16:57:25.289Z,13.18
2023-03-31T17:12:25.650Z,5.71
2023-03-31T17:27:30.777Z,3.22
2023-03-31T17:57:26.388Z,0.1
2023-03-31T18:12:26.061Z,0.02
2023-03-31T18:27:25.970Z,0.11
2023-03-31T18:42:26.032Z,0.01
2023-03-31T18:57:26.043Z,5.53
2023-03-31T19:12:31.185Z,2.42
2023-03-31T19:27:25.355Z,6.18
2023-03-31T19:42:25.198Z,1.69
2023-03-31T20:27:26.114Z,12.46
2023-03-31T20:57:25.934Z,0.16
2023-03-31T21:12:25.776Z,0.01
2023-03-31T21:27:29.027Z,0
2023-03-31T22:12:25.755Z,0.06
2023-03-31T22:27:25.748Z,0
2023-03-31T22:42:25.450Z,0.29
2023-03-31T22:57:25.320Z,0
2023-03-31T23:12:26.077Z,0
2023-03-31T23:27:25.954Z,0
2023-03-31T23:57:25.753Z,0.06
